createdAt,value
2022-12-28T00:02:22.587Z,8.95
2022-12-28T00:04:50.957Z,9.20
2022-12-28T00:07:19.417Z,9.63
2022-12-28T00:09:47.617Z,10.20
2022-12-28T00:12:16.015Z,8.90
2022-12-28T00:14:46.192Z,8.38
2022-12-28T00:17:14.924Z,7.90
2022-12-28T00:19:44.520Z,8.43
2022-12-28T00:22:12.996Z,8.18
2022-12-28T00:24:41.216Z,8.20
2022-12-28T00:27:09.695Z,8.27
2022-12-28T00:29:38.055Z,7.95
2022-12-28T00:32:06.880Z,7.88
2022-12-28T00:34:35.206Z,8.40
2022-12-28T00:37:12.224Z,7.88
2022-12-28T00:39:42.337Z,8.65
2022-12-28T00:42:11.387Z,8.32
2022-12-28T00:44:39.929Z,7.43
2022-12-28T00:47:08.709Z,8.52
2022-12-28T00:49:37.251Z,8.10
2022-12-28T00:52:07.647Z,7.93
2022-12-28T00:54:35.876Z,7.97
2022-12-28T00:57:04.595Z,7.13
2022-12-28T00:59:33.040Z,8.25
2022-12-28T01:02:01.709Z,8.18
2022-12-28T01:04:30.223Z,8.23
2022-12-28T01:07:01.378Z,10.30
2022-12-28T01:09:31.029Z,7.93
2022-12-28T01:11:59.574Z,7.70
2022-12-28T01:14:27.945Z,7.65
2022-12-28T01:16:56.472Z,7.45
2022-12-28T01:19:25.312Z,8.25
2022-12-28T01:21:53.998Z,8.02
2022-12-28T01:24:22.959Z,8.18
2022-12-28T01:26:52.874Z,7.95
2022-12-28T01:29:21.165Z,7.68
2022-12-28T01:31:49.694Z,8.80
2022-12-28T01:34:18.029Z,8.48
2022-12-28T01:36:46.594Z,9.52
2022-12-28T01:39:14.859Z,9.93
2022-12-28T01:41:44.032Z,9.80
2022-12-28T01:44:45.478Z,8.45
2022-12-28T01:49:47.695Z,9.75
2022-12-28T01:52:19.774Z,9.50
2022-12-28T01:54:50.779Z,9.00
2022-12-28T01:57:21.114Z,8.27
2022-12-28T01:59:54.517Z,9.00
2022-12-28T02:02:23.724Z,8.30
2022-12-28T02:04:52.248Z,8.13
2022-12-28T02:07:34.613Z,7.70
2022-12-28T02:10:43.852Z,7.97
2022-12-28T02:12:51.538Z,8.75
2022-12-28T02:15:23.291Z,8.77
2022-12-28T02:17:51.957Z,8.30
2022-12-28T02:20:20.713Z,8.20
2022-12-28T02:23:07.427Z,7.57
2022-12-28T02:26:08.793Z,8.43
2022-12-28T02:31:28.227Z,8.23
2022-12-28T02:34:03.609Z,9.40
2022-12-28T02:36:36.252Z,9.27
2022-12-28T02:39:09.368Z,9.55
2022-12-28T02:41:38.237Z,9.77
2022-12-28T02:44:08.711Z,9.63
2022-12-28T02:46:54.596Z,9.45
2022-12-28T02:49:41.922Z,9.63
2022-12-28T02:52:15.496Z,8.95
2022-12-28T02:55:32.763Z,9.25
2022-12-28T02:58:16.374Z,9.13
2022-12-28T03:00:57.842Z,8.65
2022-12-28T03:06:19.686Z,8.10
2022-12-28T03:08:54.706Z,8.82
2022-12-28T03:11:26.636Z,9.68
2022-12-28T03:13:58.585Z,8.98
2022-12-28T03:16:30.436Z,8.85
2022-12-28T03:19:21.679Z,8.95
2022-12-28T03:22:08.582Z,8.43
2022-12-28T03:24:55.791Z,9.48
2022-12-28T03:27:41.693Z,8.70
2022-12-28T03:30:30.845Z,9.20
2022-12-28T03:33:01.040Z,9.65
2022-12-28T03:35:35.588Z,9.88
2022-12-28T03:38:04.982Z,9.90
2022-12-28T03:40:36.726Z,9.43
2022-12-28T03:43:26.500Z,9.70
2022-12-28T03:45:57.610Z,10.20
2022-12-28T03:50:55.625Z,9.77
2022-12-28T03:53:28.519Z,9.55
2022-12-28T03:56:07.357Z,9.50
2022-12-28T03:58:35.972Z,8.25
2022-12-28T04:01:04.530Z,8.70
2022-12-28T04:03:35.019Z,9.23
2022-12-28T04:06:03.445Z,7.68
2022-12-28T04:08:32.909Z,8.32
2022-12-28T04:11:01.633Z,6.97
2022-12-28T04:13:31.164Z,7.22
2022-12-28T04:16:00.804Z,6.40
2022-12-28T04:18:29.734Z,5.43
2022-12-28T04:20:59.693Z,5.95
2022-12-28T04:23:28.436Z,5.25
2022-12-28T04:26:02.478Z,6.00
2022-12-28T04:28:31.653Z,5.22
2022-12-28T04:31:00.802Z,5.20
2022-12-28T04:33:29.953Z,5.05
2022-12-28T04:36:06.997Z,4.55
2022-12-28T04:38:35.622Z,5.00
2022-12-28T04:41:04.901Z,5.13
2022-12-28T04:43:34.207Z,4.65
2022-12-28T04:46:04.441Z,4.85
2022-12-28T04:48:33.249Z,4.55
2022-12-28T04:51:09.059Z,4.60
2022-12-28T04:53:39.119Z,4.55
2022-12-28T04:56:08.666Z,4.90
2022-12-28T04:58:38.163Z,4.10
2022-12-28T05:01:07.273Z,5.30
2022-12-28T05:03:36.296Z,5.13
2022-12-28T05:06:05.158Z,4.30
2022-12-28T05:08:35.404Z,4.43
2022-12-28T05:11:04.164Z,4.75
2022-12-28T05:13:33.387Z,4.25
2022-12-28T05:16:02.331Z,3.70
2022-12-28T05:18:31.215Z,4.25
2022-12-28T05:21:02.807Z,3.88
2022-12-28T05:23:31.828Z,3.35
2022-12-28T05:26:01.569Z,4.35
2022-12-28T05:28:30.057Z,3.13
2022-12-28T05:31:00.994Z,4.35
2022-12-28T05:35:57.982Z,5.47
2022-12-28T05:38:26.397Z,3.47
2022-12-28T05:40:54.650Z,3.55
2022-12-28T05:43:24.561Z,4.97
2022-12-28T05:45:52.840Z,3.95
2022-12-28T05:48:21.351Z,4.63
2022-12-28T05:50:49.616Z,4.10
2022-12-28T05:53:18.220Z,6.00
2022-12-28T05:55:46.477Z,5.70
2022-12-28T05:58:14.960Z,3.97
2022-12-28T06:00:44.580Z,3.97
2022-12-28T06:03:13.221Z,5.10
2022-12-28T06:05:41.526Z,4.10
2022-12-28T06:08:10.012Z,3.72
2022-12-28T06:10:38.263Z,4.43
2022-12-28T06:13:06.893Z,3.85
2022-12-28T06:15:35.450Z,3.72
2022-12-28T06:18:05.615Z,3.92
2022-12-28T06:20:33.859Z,6.75
2022-12-28T06:23:02.424Z,5.13
2022-12-28T06:25:30.759Z,13.82
2022-12-28T06:27:59.195Z,9.48
2022-12-28T06:30:27.552Z,5.43
2022-12-28T06:32:57.569Z,6.40
2022-12-28T06:35:30.062Z,10.63
2022-12-28T06:37:58.700Z,6.28
2022-12-28T06:40:39.561Z,4.40
2022-12-28T06:43:15.377Z,3.90
2022-12-28T06:45:43.607Z,4.18
2022-12-28T06:48:12.211Z,11.27
2022-12-28T06:50:41.872Z,5.45
2022-12-28T06:53:10.414Z,6.40
2022-12-28T06:55:38.751Z,5.70
2022-12-28T06:58:07.292Z,5.68
2022-12-28T07:00:35.637Z,5.18
2022-12-28T07:03:04.430Z,7.63
2022-12-28T07:05:33.116Z,4.53
2022-12-28T07:08:07.695Z,4.68
2022-12-28T07:10:39.087Z,5.45
2022-12-28T07:13:07.827Z,4.70
2022-12-28T07:15:36.705Z,4.95
2022-12-28T07:18:05.464Z,4.80
2022-12-28T07:20:40.092Z,4.90
2022-12-28T07:23:10.774Z,4.50
2022-12-28T07:25:38.910Z,4.72
2022-12-28T07:28:07.622Z,5.00
2022-12-28T07:30:36.125Z,4.35
2022-12-28T07:33:05.893Z,5.07
2022-12-28T07:35:34.283Z,4.70
2022-12-28T07:38:02.890Z,4.80
2022-12-28T07:40:32.448Z,5.03
2022-12-28T07:43:01.389Z,5.03
2022-12-28T07:45:29.631Z,5.28
2022-12-28T07:47:58.963Z,4.95
2022-12-28T07:50:28.619Z,5.32
2022-12-28T07:53:02.136Z,5.50
2022-12-28T07:55:32.084Z,5.82
2022-12-28T07:58:02.176Z,5.43
2022-12-28T08:00:30.449Z,5.18
2022-12-28T08:02:59.100Z,6.75
2022-12-28T08:05:27.412Z,6.00
2022-12-28T08:07:59.837Z,5.57
2022-12-28T08:10:31.695Z,5.60
2022-12-28T08:13:01.988Z,7.32
2022-12-28T08:15:30.717Z,9.00
2022-12-28T08:17:59.488Z,8.85
2022-12-28T08:20:27.742Z,7.30
2022-12-28T08:22:56.328Z,7.97
2022-12-28T08:25:25.116Z,7.97
2022-12-28T08:27:53.582Z,9.02
2022-12-28T08:30:23.208Z,9.38
2022-12-28T08:32:51.753Z,12.43
2022-12-28T08:35:19.960Z,8.57
2022-12-28T08:37:48.573Z,7.15
2022-12-28T08:40:16.844Z,12.30
2022-12-28T08:42:45.319Z,9.00
2022-12-28T08:45:13.570Z,12.63
2022-12-28T08:47:43.509Z,10.60
2022-12-28T08:50:12.344Z,8.32
2022-12-28T08:52:41.243Z,7.53
2022-12-28T08:55:10.074Z,6.43
2022-12-28T08:57:38.665Z,6.15
2022-12-28T09:00:08.187Z,5.95
2022-12-28T09:02:37.067Z,6.32
2022-12-28T09:05:07.859Z,5.70
2022-12-28T09:07:36.427Z,5.50
2022-12-28T09:10:05.162Z,5.68
2022-12-28T09:12:33.688Z,6.20
2022-12-28T09:15:01.975Z,6.00
2022-12-28T09:17:30.992Z,6.05
2022-12-28T09:19:59.131Z,6.53
2022-12-28T09:22:28.994Z,6.95
2022-12-28T09:24:57.190Z,8.13
2022-12-28T09:27:25.722Z,6.88
2022-12-28T09:29:53.923Z,6.60
2022-12-28T09:32:22.344Z,5.85
2022-12-28T09:34:50.514Z,5.78
2022-12-28T09:37:18.952Z,6.20
2022-12-28T09:39:48.661Z,6.78
2022-12-28T09:42:21.685Z,5.43
2022-12-28T09:44:56.809Z,6.13
2022-12-28T09:47:29.858Z,6.40
2022-12-28T09:50:05.538Z,5.28
2022-12-28T09:52:36.713Z,5.72
2022-12-28T09:55:13.682Z,5.07
2022-12-28T09:57:46.135Z,4.82
2022-12-28T10:00:19.356Z,4.68
2022-12-28T10:02:52.212Z,6.35
2022-12-28T10:05:22.001Z,8.52
2022-12-28T10:07:50.890Z,8.70
2022-12-28T10:10:22.390Z,7.20
2022-12-28T10:12:52.415Z,6.43
2022-12-28T10:15:29.379Z,5.78
2022-12-28T10:17:57.865Z,6.22
2022-12-28T10:20:26.217Z,7.05
2022-12-28T10:22:57.264Z,8.75
2022-12-28T10:25:27.906Z,7.10
2022-12-28T10:27:56.817Z,6.63
2022-12-28T10:30:32.035Z,7.18
2022-12-28T10:33:03.434Z,7.13
2022-12-28T10:35:36.202Z,7.40
2022-12-28T10:38:07.519Z,7.22
2022-12-28T10:40:39.632Z,7.07
2022-12-28T10:43:11.063Z,7.13
2022-12-28T10:45:41.993Z,7.20
2022-12-28T10:48:16.637Z,6.60
2022-12-28T10:50:51.311Z,6.00
2022-12-28T10:53:25.573Z,6.75
2022-12-28T10:56:05.548Z,6.43
2022-12-28T10:58:35.333Z,7.35
2022-12-28T11:01:07.551Z,9.38
2022-12-28T11:03:38.562Z,9.38
2022-12-28T11:06:15.501Z,11.55
2022-12-28T11:08:46.211Z,8.60
2022-12-28T11:11:24.670Z,20.90
2022-12-28T11:13:55.738Z,11.32
2022-12-28T11:16:23.971Z,7.97
2022-12-28T11:18:52.978Z,9.30
2022-12-28T11:21:22.664Z,7.13
2022-12-28T11:23:52.246Z,7.10
2022-12-28T11:26:21.135Z,5.75
2022-12-28T11:28:52.990Z,5.68
2022-12-28T11:31:25.453Z,5.10
2022-12-28T11:33:56.204Z,4.70
2022-12-28T11:36:26.378Z,4.72
2022-12-28T11:38:56.468Z,5.13
2022-12-28T11:42:02.786Z,4.20
2022-12-28T11:44:53.885Z,4.97
2022-12-28T11:47:33.270Z,4.10
2022-12-28T11:50:42.583Z,4.57
2022-12-28T11:53:25.200Z,5.07
2022-12-28T11:56:06.773Z,5.25
2022-12-28T11:58:54.341Z,5.28
2022-12-28T12:01:49.428Z,5.93
2022-12-28T12:04:46.247Z,5.00
2022-12-28T12:07:30.681Z,6.53
2022-12-28T12:10:42.578Z,5.45
2022-12-28T12:13:38.458Z,5.47
2022-12-28T12:16:10.357Z,6.65
2022-12-28T12:18:47.365Z,4.80
2022-12-28T12:21:26.665Z,4.75
2022-12-28T12:23:58.923Z,4.05
2022-12-28T12:26:30.636Z,4.90
2022-12-28T12:29:03.281Z,4.28
2022-12-28T12:31:34.373Z,4.13
2022-12-28T12:37:03.289Z,5.45
2022-12-28T12:39:42.657Z,7.20
2022-12-28T12:42:17.017Z,6.28
2022-12-28T12:44:50.945Z,10.68
2022-12-28T12:47:34.408Z,11.07
2022-12-28T12:50:19.760Z,12.82
2022-12-28T12:52:55.940Z,11.02
2022-12-28T12:55:34.994Z,7.93
2022-12-28T12:58:06.878Z,9.75
2022-12-28T13:00:48.613Z,7.63
2022-12-28T13:03:21.365Z,6.63
2022-12-28T13:05:54.881Z,6.43
2022-12-28T13:08:27.109Z,4.60
2022-12-28T13:10:56.541Z,5.40
2022-12-28T13:13:31.956Z,4.45
2022-12-28T13:16:04.071Z,4.70
2022-12-28T13:18:44.660Z,3.92
2022-12-28T13:21:22.295Z,5.30
2022-12-28T13:23:51.324Z,3.83
2022-12-28T13:26:23.025Z,5.00
2022-12-28T13:28:53.649Z,5.60
2022-12-28T13:31:23.856Z,5.88
2022-12-28T13:33:56.755Z,5.15
2022-12-28T13:36:27.164Z,5.47
2022-12-28T13:39:05.227Z,10.10
2022-12-28T13:41:36.645Z,10.02
2022-12-28T13:44:23.305Z,8.50
2022-12-28T13:46:56.984Z,7.72
2022-12-28T13:49:26.605Z,5.25
2022-12-28T13:51:57.237Z,7.90
2022-12-28T13:54:26.027Z,9.32
2022-12-28T13:57:35.957Z,7.25
2022-12-28T14:02:17.677Z,6.97
2022-12-28T14:04:54.212Z,6.57
2022-12-28T14:07:27.232Z,6.50
2022-12-28T14:09:55.780Z,6.43
2022-12-28T14:12:25.032Z,5.18
2022-12-28T14:14:54.033Z,5.65
2022-12-28T14:17:24.168Z,5.90
2022-12-28T14:19:53.370Z,6.15
2022-12-28T14:22:31.809Z,8.30
2022-12-28T14:25:02.362Z,13.38
2022-12-28T14:27:34.028Z,7.15
2022-12-28T14:30:05.945Z,10.02
2022-12-28T14:35:25.679Z,6.53
2022-12-28T14:37:57.281Z,6.78
2022-12-28T14:40:30.170Z,6.85
2022-12-28T14:42:59.535Z,7.85
2022-12-28T14:46:06.898Z,9.32
2022-12-28T14:48:35.340Z,10.25
2022-12-28T14:51:05.331Z,9.48
2022-12-28T14:53:35.469Z,10.48
2022-12-28T14:56:06.913Z,7.05
2022-12-28T14:58:40.556Z,6.53
2022-12-28T15:00:15.947Z,6.53
2022-12-28T15:01:10.609Z,7.53
2022-12-28T15:03:53.315Z,7.50
2022-12-28T15:06:22.039Z,14.30
2022-12-28T15:08:53.295Z,14.82
2022-12-28T15:11:23.631Z,11.68
2022-12-28T15:13:52.316Z,11.35
2022-12-28T15:16:22.990Z,10.75
2022-12-28T15:18:53.084Z,11.20
2022-12-28T15:21:23.372Z,10.30
2022-12-28T15:23:54.925Z,10.88
2022-12-28T15:26:24.700Z,10.23
2022-12-28T15:28:53.493Z,11.43
2022-12-28T15:31:22.720Z,10.02
2022-12-28T15:33:51.642Z,10.85
2022-12-28T15:36:21.962Z,11.80
2022-12-28T15:38:51.120Z,11.27
2022-12-28T15:41:38.213Z,10.77
2022-12-28T15:44:07.619Z,12.50
2022-12-28T15:46:36.351Z,15.85
2022-12-28T15:49:05.808Z,19.80
2022-12-28T15:51:34.801Z,37.47
2022-12-28T15:54:03.664Z,14.25
2022-12-28T15:56:35.306Z,12.70
2022-12-28T15:59:06.058Z,11.40
2022-12-28T16:01:34.948Z,12.35
2022-12-28T16:04:04.180Z,12.98
2022-12-28T16:06:37.143Z,12.65
2022-12-28T16:09:08.950Z,12.13
2022-12-28T16:11:38.691Z,12.70
2022-12-28T16:14:09.842Z,12.95
2022-12-28T16:16:39.890Z,12.48
2022-12-28T16:19:09.102Z,12.53
2022-12-28T16:21:37.374Z,13.00
2022-12-28T16:24:06.483Z,13.82
2022-12-28T16:26:35.220Z,13.55
2022-12-28T16:29:05.503Z,11.75
2022-12-28T16:31:35.460Z,12.93
2022-12-28T16:34:05.511Z,12.23
2022-12-28T16:36:33.960Z,13.13
2022-12-28T16:39:05.444Z,13.00
2022-12-28T16:41:36.894Z,11.95
2022-12-28T16:44:09.339Z,10.82
2022-12-28T16:46:37.592Z,11.18
2022-12-28T16:49:06.381Z,10.00
2022-12-28T16:51:34.733Z,11.50
2022-12-28T16:54:03.396Z,11.50
2022-12-28T16:56:31.797Z,11.93
2022-12-28T16:59:01.218Z,13.30
2022-12-28T17:01:30.979Z,13.32
2022-12-28T17:04:04.208Z,12.40
2022-12-28T17:06:32.943Z,11.65
2022-12-28T17:09:02.802Z,13.85
2022-12-28T17:11:31.634Z,12.10
2022-12-28T17:14:04.962Z,12.63
2022-12-28T17:16:35.063Z,11.10
2022-12-28T17:19:03.838Z,10.40
2022-12-28T17:21:33.125Z,11.43
2022-12-28T17:24:01.913Z,10.65
2022-12-28T17:26:30.257Z,10.75
2022-12-28T17:28:59.305Z,10.35
2022-12-28T17:31:28.102Z,12.10
2022-12-28T17:33:59.464Z,11.43
2022-12-28T17:36:28.586Z,9.95
2022-12-28T17:38:57.460Z,9.70
2022-12-28T17:41:27.904Z,9.57
2022-12-28T17:43:58.986Z,9.02
2022-12-28T17:46:29.201Z,9.25
2022-12-28T17:49:00.657Z,8.60
2022-12-28T17:51:29.538Z,8.57
2022-12-28T17:53:58.775Z,10.43
2022-12-28T17:56:27.990Z,9.82
2022-12-28T17:59:00.420Z,9.63
2022-12-28T18:01:29.230Z,9.32
2022-12-28T18:04:00.573Z,9.40
2022-12-28T18:06:29.041Z,9.52
2022-12-28T18:08:57.781Z,9.70
2022-12-28T18:11:26.471Z,10.85
2022-12-28T18:13:56.808Z,9.68
2022-12-28T18:16:25.116Z,10.43
2022-12-28T18:18:53.833Z,20.63
2022-12-28T18:21:24.320Z,11.35
2022-12-28T18:23:53.937Z,9.07
2022-12-28T18:26:23.933Z,9.60
2022-12-28T18:28:52.461Z,15.25
2022-12-28T18:31:21.112Z,9.95
2022-12-28T18:33:50.092Z,11.18
2022-12-28T18:36:19.033Z,11.75
2022-12-28T18:38:49.300Z,12.20
2022-12-28T18:41:20.890Z,17.80
2022-12-28T18:43:51.479Z,16.85
2022-12-28T18:46:19.955Z,12.18
2022-12-28T18:48:48.757Z,11.95
2022-12-28T18:51:18.520Z,10.68
2022-12-28T18:53:50.369Z,10.27
2022-12-28T18:56:20.314Z,9.23
2022-12-28T18:58:53.040Z,9.02
2022-12-28T19:04:12.671Z,8.82
2022-12-28T19:06:41.689Z,8.85
2022-12-28T19:09:12.324Z,8.88
2022-12-28T19:11:41.180Z,8.48
2022-12-28T19:14:12.725Z,8.63
2022-12-28T19:16:41.222Z,8.40
2022-12-28T19:19:09.836Z,8.65
2022-12-28T19:21:39.466Z,8.30
2022-12-28T19:24:13.149Z,10.43
2022-12-28T19:26:41.543Z,8.85
2022-12-28T19:29:11.727Z,8.85
2022-12-28T19:31:40.413Z,9.65
2022-12-28T19:34:09.244Z,8.88
2022-12-28T19:36:37.801Z,7.50
2022-12-28T19:39:06.908Z,9.65
2022-12-28T19:41:36.756Z,7.78
2022-12-28T19:44:05.907Z,7.55
2022-12-28T19:46:34.379Z,7.63
2022-12-28T19:49:04.626Z,5.93
2022-12-28T19:51:33.658Z,6.10
2022-12-28T19:54:02.684Z,7.75
2022-12-28T19:56:31.780Z,6.65
2022-12-28T19:59:06.649Z,7.05
2022-12-28T20:01:36.998Z,7.20
2022-12-28T20:04:12.964Z,7.20
2022-12-28T20:06:43.512Z,6.90
2022-12-28T20:09:13.206Z,8.75
2022-12-28T20:11:41.927Z,6.75
2022-12-28T20:14:14.087Z,7.25
2022-12-28T20:16:43.002Z,6.82
2022-12-28T20:19:12.702Z,6.72
2022-12-28T20:21:42.842Z,5.78
2022-12-28T20:24:13.168Z,6.17
2022-12-28T20:26:41.693Z,6.15
2022-12-28T20:29:10.624Z,5.38
2022-12-28T20:31:40.416Z,4.65
2022-12-28T20:34:09.421Z,5.15
2022-12-28T20:36:37.936Z,4.90
2022-12-28T20:39:06.755Z,5.25
2022-12-28T20:41:53.018Z,4.97
2022-12-28T20:44:25.653Z,5.47
2022-12-28T20:46:58.023Z,4.85
2022-12-28T20:49:27.943Z,7.15
2022-12-28T20:51:56.916Z,6.47
2022-12-28T20:54:26.068Z,6.90
2022-12-28T20:56:56.133Z,6.32
2022-12-28T20:59:26.155Z,6.35
2022-12-28T21:01:56.493Z,8.00
2022-12-28T21:04:26.157Z,13.95
2022-12-28T21:06:55.196Z,7.82
2022-12-28T21:09:24.222Z,12.85
2022-12-28T21:11:52.640Z,5.45
2022-12-28T21:14:21.416Z,7.60
2022-12-28T21:16:56.451Z,5.60
2022-12-28T21:19:25.408Z,9.90
2022-12-28T21:21:53.861Z,6.00
2022-12-28T21:24:22.704Z,6.07
2022-12-28T21:26:51.243Z,5.80
2022-12-28T21:29:25.520Z,5.70
2022-12-28T21:31:56.256Z,5.53
2022-12-28T21:34:27.989Z,6.07
2022-12-28T21:37:17.561Z,9.13
2022-12-28T21:39:46.515Z,4.93
2022-12-28T21:42:15.372Z,5.05
2022-12-28T21:44:45.332Z,5.15
2022-12-28T21:47:15.752Z,6.05
2022-12-28T21:49:55.161Z,5.93
2022-12-28T21:52:46.976Z,7.25
2022-12-28T21:55:39.764Z,6.93
2022-12-28T21:58:11.051Z,5.35
2022-12-28T22:00:57.804Z,5.38
2022-12-28T22:03:45.108Z,5.25
2022-12-28T22:06:16.914Z,5.63
2022-12-28T22:09:13.888Z,4.85
2022-12-28T22:12:00.693Z,4.78
2022-12-28T22:14:29.072Z,4.82
2022-12-28T22:16:57.979Z,4.97
2022-12-28T22:19:27.854Z,4.85
2022-12-28T22:21:56.542Z,4.65
2022-12-28T22:24:25.021Z,4.30
2022-12-28T22:26:54.091Z,3.70
2022-12-28T22:29:24.204Z,3.60
2022-12-28T22:31:53.011Z,3.87
2022-12-28T22:34:21.523Z,3.88
2022-12-28T22:36:52.139Z,3.95
2022-12-28T22:39:20.775Z,4.30
2022-12-28T22:41:49.596Z,4.30
2022-12-28T22:44:18.196Z,4.88
2022-12-28T22:46:55.738Z,4.82
2022-12-28T22:49:26.941Z,4.75
2022-12-28T22:51:57.293Z,5.30
2022-12-28T22:54:25.735Z,4.47
2022-12-28T22:56:54.358Z,5.13
2022-12-28T22:59:22.568Z,4.28
2022-12-28T23:01:54.013Z,4.25
2022-12-28T23:04:22.721Z,4.60
2022-12-28T23:06:51.483Z,4.03
2022-12-28T23:09:21.078Z,4.25
2022-12-28T23:11:50.622Z,4.45
2022-12-28T23:14:42.727Z,5.60
2022-12-28T23:17:14.195Z,4.10
2022-12-28T23:20:00.214Z,5.03
2022-12-28T23:22:48.147Z,4.15
2022-12-28T23:25:38.354Z,4.55
2022-12-28T23:28:08.783Z,4.35
2022-12-28T23:30:38.819Z,4.47
2022-12-28T23:33:07.875Z,4.85
2022-12-28T23:35:36.642Z,5.30
2022-12-28T23:38:05.592Z,5.15
2022-12-28T23:40:35.443Z,4.75
2022-12-28T23:43:04.313Z,5.22
2022-12-28T23:45:32.965Z,5.15
2022-12-28T23:48:01.706Z,5.18
2022-12-28T23:50:30.139Z,4.90
2022-12-28T23:52:59.201Z,4.15
2022-12-28T23:55:27.434Z,4.78
2022-12-28T23:57:57.563Z,5.07
